createdAt,value
2022-10-31T00:01:29.080Z,146.70
2022-10-31T00:04:13.357Z,142.82
2022-10-31T00:07:02.089Z,144.80
2022-10-31T00:09:44.373Z,144.32
2022-10-31T00:12:33.007Z,141.52
2022-10-31T00:15:16.362Z,139.05
2022-10-31T00:18:05.089Z,142.40
2022-10-31T00:20:54.993Z,138.70
2022-10-31T00:23:37.465Z,137.52
2022-10-31T00:26:27.072Z,136.05
2022-10-31T00:29:15.358Z,137.13
2022-10-31T00:32:05.012Z,137.02
2022-10-31T00:34:47.406Z,135.23
2022-10-31T00:37:36.139Z,134.15
2022-10-31T00:40:19.361Z,135.63
2022-10-31T00:43:09.164Z,133.75
2022-10-31T00:45:52.379Z,137.50
2022-10-31T00:48:41.054Z,134.80
2022-10-31T00:51:29.991Z,131.98
2022-10-31T00:54:19.147Z,133.88
2022-10-31T00:57:01.357Z,131.98
2022-10-31T00:59:50.060Z,134.30
2022-10-31T01:02:39.142Z,130.02
2022-10-31T01:05:29.134Z,133.20
2022-10-31T01:08:11.335Z,133.32
2022-10-31T01:11:14.108Z,134.30
2022-10-31T01:13:59.501Z,132.63
2022-10-31T01:16:48.992Z,133.20
2022-10-31T01:19:38.063Z,132.63
2022-10-31T01:22:20.287Z,130.88
2022-10-31T01:25:09.249Z,130.18
2022-10-31T01:27:51.259Z,132.43
2022-10-31T01:30:39.979Z,127.22
2022-10-31T01:33:34.907Z,130.07
2022-10-31T01:36:38.081Z,131.95
2022-10-31T01:39:23.359Z,131.07
2022-10-31T01:42:12.012Z,133.27
2022-10-31T01:45:29.990Z,127.50
2022-10-31T01:48:24.374Z,127.53
2022-10-31T01:51:07.095Z,130.32
2022-10-31T01:53:56.817Z,128.88
2022-10-31T01:56:43.074Z,126.13
2022-10-31T01:59:35.971Z,124.90
2022-10-31T02:02:25.132Z,129.95
2022-10-31T02:05:11.615Z,127.43
2022-10-31T02:08:18.036Z,126.30
2022-10-31T02:11:08.985Z,123.78
2022-10-31T02:13:51.339Z,127.30
2022-10-31T02:16:40.066Z,125.68
2022-10-31T02:19:31.339Z,126.72
2022-10-31T02:22:38.007Z,123.32
2022-10-31T02:26:05.125Z,124.80
2022-10-31T02:29:09.008Z,125.60
2022-10-31T02:32:22.083Z,127.43
2022-10-31T02:35:07.334Z,125.50
2022-10-31T02:38:12.466Z,124.78
2022-10-31T02:41:41.347Z,126.53
2022-10-31T02:44:47.074Z,123.88
2022-10-31T02:47:43.089Z,124.32
2022-10-31T02:50:36.382Z,122.75
2022-10-31T02:53:26.104Z,122.50
2022-10-31T02:56:20.950Z,124.25
2022-10-31T02:59:13.336Z,123.35
2022-10-31T03:02:14.147Z,128.32
2022-10-31T03:05:13.102Z,128.85
2022-10-31T03:08:16.370Z,129.27
2022-10-31T03:11:09.047Z,133.10
2022-10-31T03:14:10.090Z,132.20
2022-10-31T03:17:04.969Z,132.52
2022-10-31T03:19:57.343Z,139.18
2022-10-31T03:22:51.984Z,137.02
2022-10-31T03:25:35.366Z,135.65
2022-10-31T03:31:12.341Z,134.07
2022-10-31T03:34:04.956Z,142.90
2022-10-31T03:36:50.333Z,143.13
2022-10-31T03:39:39.966Z,143.60
2022-10-31T03:42:30.333Z,143.57
2022-10-31T03:45:32.071Z,143.18
2022-10-31T03:48:15.322Z,144.85
2022-10-31T03:51:32.053Z,146.40
2022-10-31T03:54:46.418Z,147.57
2022-10-31T03:57:57.152Z,146.02
2022-10-31T04:00:42.345Z,146.65
2022-10-31T04:03:37.968Z,146.82
2022-10-31T04:06:25.379Z,148.95
2022-10-31T04:09:18.106Z,150.10
2022-10-31T04:12:05.385Z,148.07
2022-10-31T04:15:16.053Z,144.13
2022-10-31T04:18:03.576Z,145.88
2022-10-31T04:20:53.074Z,147.05
2022-10-31T04:23:36.558Z,148.75
2022-10-31T04:26:40.067Z,147.73
2022-10-31T04:29:22.390Z,147.27
2022-10-31T04:32:17.102Z,149.73
2022-10-31T04:35:07.351Z,150.27
2022-10-31T04:37:50.127Z,147.45
2022-10-31T04:40:32.473Z,152.68
2022-10-31T04:43:24.093Z,151.13
2022-10-31T04:46:08.488Z,144.52
2022-10-31T04:48:56.951Z,143.70
2022-10-31T04:51:46.050Z,142.48
2022-10-31T04:54:28.333Z,144.88
2022-10-31T04:57:17.069Z,141.20
2022-10-31T04:59:59.367Z,143.60
2022-10-31T05:02:56.066Z,139.75
2022-10-31T05:05:39.540Z,142.45
2022-10-31T05:08:29.049Z,145.90
2022-10-31T05:11:15.145Z,144.05
2022-10-31T05:14:04.059Z,140.63
2022-10-31T05:17:06.492Z,140.32
2022-10-31T05:20:22.066Z,142.43
2022-10-31T05:23:36.349Z,140.13
2022-10-31T05:26:24.961Z,141.20
2022-10-31T05:29:08.393Z,140.68
2022-10-31T05:31:57.064Z,143.23
2022-10-31T05:35:05.395Z,140.85
2022-10-31T05:38:18.049Z,139.52
2022-10-31T05:41:04.296Z,136.45
2022-10-31T05:43:55.098Z,137.23
2022-10-31T05:46:39.344Z,137.68
2022-10-31T05:49:36.970Z,135.77
2022-10-31T05:52:38.626Z,135.25
2022-10-31T05:55:41.068Z,137.95
2022-10-31T05:58:35.123Z,130.27
2022-10-31T06:01:17.429Z,132.57
2022-10-31T06:04:06.115Z,133.00
2022-10-31T06:06:54.955Z,129.27
2022-10-31T06:09:44.067Z,133.70
2022-10-31T06:12:36.059Z,128.95
2022-10-31T06:15:39.351Z,131.40
2022-10-31T06:18:28.056Z,129.60
2022-10-31T06:21:13.689Z,130.45
2022-10-31T06:24:06.975Z,135.38
2022-10-31T06:27:11.045Z,128.85
2022-10-31T06:29:53.407Z,129.32
2022-10-31T06:32:51.032Z,129.40
2022-10-31T06:35:39.974Z,127.82
2022-10-31T06:38:28.784Z,124.65
2022-10-31T06:41:14.986Z,126.53
2022-10-31T06:43:58.266Z,128.98
2022-10-31T06:47:06.979Z,126.07
2022-10-31T06:50:12.320Z,125.78
2022-10-31T06:53:14.054Z,125.40
2022-10-31T06:55:58.334Z,123.28
2022-10-31T06:58:52.047Z,124.72
2022-10-31T07:01:54.370Z,128.68
2022-10-31T07:04:43.074Z,122.82
2022-10-31T07:07:34.080Z,124.57
2022-10-31T07:10:16.459Z,121.72
2022-10-31T07:13:16.056Z,120.55
2022-10-31T07:16:04.353Z,116.97
2022-10-31T07:18:52.973Z,118.90
2022-10-31T07:21:44.071Z,125.80
2022-10-31T07:24:33.334Z,125.80
2022-10-31T07:27:41.639Z,121.65
2022-10-31T07:30:26.291Z,116.88
2022-10-31T07:33:14.983Z,114.45
2022-10-31T07:36:22.038Z,113.90
2022-10-31T07:39:10.331Z,103.55
2022-10-31T07:41:58.998Z,90.55
2022-10-31T07:44:42.334Z,81.15
2022-10-31T07:47:53.983Z,81.75
2022-10-31T07:51:03.129Z,84.50
2022-10-31T07:54:21.249Z,70.32
2022-10-31T07:57:10.022Z,82.38
2022-10-31T07:59:58.972Z,96.25
2022-10-31T08:02:57.214Z,103.93
2022-10-31T08:06:14.968Z,102.13
2022-10-31T08:09:06.371Z,96.93
2022-10-31T08:11:57.341Z,102.88
2022-10-31T08:14:48.085Z,99.18
2022-10-31T08:17:31.635Z,95.57
2022-10-31T08:20:21.013Z,87.63
2022-10-31T08:23:07.241Z,89.78
2022-10-31T08:25:57.953Z,94.45
2022-10-31T08:28:40.227Z,90.40
2022-10-31T08:31:33.452Z,90.77
2022-10-31T08:34:47.955Z,84.35
2022-10-31T08:38:03.319Z,83.70
2022-10-31T08:40:47.332Z,80.82
2022-10-31T08:43:35.947Z,81.18
2022-10-31T08:46:25.026Z,78.63
2022-10-31T08:49:14.442Z,74.72
2022-10-31T08:51:59.302Z,79.63
2022-10-31T08:54:52.953Z,79.68
2022-10-31T08:58:11.357Z,81.07
2022-10-31T09:01:08.138Z,79.97
2022-10-31T09:03:52.317Z,79.68
2022-10-31T09:06:50.304Z,77.40
2022-10-31T09:09:44.104Z,74.88
2022-10-31T09:12:28.349Z,78.63
2022-10-31T09:15:35.068Z,76.22
2022-10-31T09:18:30.311Z,77.40
2022-10-31T09:21:18.957Z,79.57
2022-10-31T09:24:08.344Z,77.75
2022-10-31T09:26:51.966Z,78.25
2022-10-31T09:29:37.254Z,81.13
2022-10-31T09:32:28.969Z,84.20
2022-10-31T09:35:20.461Z,83.45
2022-10-31T09:38:08.052Z,85.15
2022-10-31T09:41:29.410Z,86.38
2022-10-31T09:44:27.041Z,89.43
2022-10-31T09:47:31.085Z,87.53
2022-10-31T09:50:52.168Z,93.78
2022-10-31T09:54:15.946Z,88.13
2022-10-31T09:56:59.308Z,87.00
2022-10-31T09:59:51.255Z,85.47
2022-10-31T10:02:59.372Z,87.63
2022-10-31T10:06:01.094Z,84.00
2022-10-31T10:09:05.292Z,80.47
2022-10-31T10:12:55.041Z,78.45
2022-10-31T10:15:52.186Z,78.80
2022-10-31T10:19:02.052Z,80.60
2022-10-31T10:22:17.059Z,76.78
2022-10-31T10:25:20.320Z,75.07
2022-10-31T10:28:16.934Z,76.20
2022-10-31T10:31:08.980Z,73.82
2022-10-31T10:34:00.310Z,74.30
2022-10-31T10:36:47.064Z,74.40
2022-10-31T10:39:58.317Z,73.07
2022-10-31T10:42:58.973Z,72.05
2022-10-31T10:45:59.985Z,72.15
2022-10-31T10:48:58.058Z,68.15
2022-10-31T10:52:02.757Z,66.85
2022-10-31T10:55:07.107Z,71.10
2022-10-31T10:58:12.327Z,68.82
2022-10-31T11:00:56.155Z,73.13
2022-10-31T11:03:45.051Z,78.70
2022-10-31T11:06:31.329Z,82.88
2022-10-31T11:09:20.050Z,89.18
2022-10-31T11:12:03.298Z,94.35
2022-10-31T11:15:02.976Z,96.03
2022-10-31T11:17:56.293Z,96.72
2022-10-31T11:20:45.322Z,98.60
2022-10-31T11:23:28.970Z,100.50
2022-10-31T11:26:30.330Z,101.10
2022-10-31T11:29:16.950Z,100.93
2022-10-31T11:32:02.626Z,102.80
2022-10-31T11:34:58.963Z,102.88
2022-10-31T11:37:52.924Z,102.22
2022-10-31T11:40:42.949Z,104.28
2022-10-31T11:43:32.948Z,106.22
2022-10-31T11:46:27.356Z,107.18
2022-10-31T11:49:25.030Z,101.53
2022-10-31T11:52:17.944Z,102.55
2022-10-31T11:55:23.036Z,107.00
2022-10-31T11:58:06.332Z,102.65
2022-10-31T12:00:59.967Z,103.63
2022-10-31T12:04:11.327Z,106.63
2022-10-31T12:07:02.027Z,109.25
2022-10-31T12:09:46.353Z,105.15
2022-10-31T12:12:51.951Z,106.25
2022-10-31T12:15:45.028Z,107.43
2022-10-31T12:19:12.946Z,108.95
2022-10-31T12:22:16.930Z,107.25
2022-10-31T12:25:27.303Z,106.45
2022-10-31T12:28:23.947Z,109.80
2022-10-31T12:31:25.660Z,112.70
2022-10-31T12:34:18.074Z,112.43
2022-10-31T12:37:26.334Z,111.20
2022-10-31T12:40:28.037Z,110.68
2022-10-31T12:43:43.293Z,107.88
2022-10-31T12:46:53.950Z,108.95
2022-10-31T12:49:53.304Z,109.28
2022-10-31T12:53:03.276Z,108.80
2022-10-31T12:56:00.730Z,110.20
2022-10-31T12:58:55.948Z,110.82
2022-10-31T13:02:13.018Z,112.82
2022-10-31T13:05:13.872Z,111.97
2022-10-31T13:08:11.937Z,111.72
2022-10-31T13:11:03.472Z,115.05
2022-10-31T13:14:16.045Z,112.53
2022-10-31T13:16:59.506Z,110.40
2022-10-31T13:19:52.038Z,116.05
2022-10-31T13:22:48.032Z,114.53
2022-10-31T13:25:47.942Z,119.93
2022-10-31T13:29:00.953Z,121.38
2022-10-31T13:31:51.308Z,125.63
2022-10-31T13:35:05.023Z,133.05
2022-10-31T13:37:55.021Z,132.63
2022-10-31T13:41:09.978Z,135.27
2022-10-31T13:44:01.391Z,136.32
2022-10-31T13:46:52.027Z,135.95
2022-10-31T13:49:40.520Z,137.60
2022-10-31T13:52:34.011Z,135.02
2022-10-31T13:56:00.029Z,137.82
2022-10-31T13:59:05.709Z,136.52
2022-10-31T14:02:04.050Z,139.15
2022-10-31T14:05:03.294Z,138.50
2022-10-31T14:08:00.284Z,139.50
2022-10-31T14:10:50.767Z,143.55
2022-10-31T14:13:46.039Z,144.40
2022-10-31T14:16:34.215Z,143.85
2022-10-31T14:19:31.022Z,144.40
2022-10-31T14:22:24.838Z,144.45
2022-10-31T14:25:14.028Z,143.98
2022-10-31T14:27:57.056Z,142.68
2022-10-31T14:30:47.055Z,143.50
2022-10-31T14:33:46.882Z,143.13
2022-10-31T14:37:05.064Z,143.93
2022-10-31T14:40:05.391Z,146.80
2022-10-31T14:43:34.914Z,145.65
2022-10-31T14:46:35.344Z,143.93
2022-10-31T14:49:44.023Z,149.30
2022-10-31T14:52:28.293Z,142.70
2022-10-31T14:55:22.119Z,143.30
2022-10-31T14:58:19.038Z,144.40
2022-10-31T15:01:01.800Z,139.85
2022-10-31T15:04:22.274Z,142.70
2022-10-31T15:07:37.484Z,143.55
2022-10-31T15:10:41.020Z,140.18
2022-10-31T15:13:24.571Z,136.98
2022-10-31T15:16:13.087Z,139.95
2022-10-31T15:19:05.553Z,137.98
2022-10-31T15:22:00.039Z,134.18
2022-10-31T15:24:42.484Z,133.70
2022-10-31T15:27:34.032Z,131.00
2022-10-31T15:30:29.953Z,128.70
2022-10-31T15:33:24.664Z,131.68
2022-10-31T15:36:15.068Z,128.45
2022-10-31T15:39:06.016Z,132.23
2022-10-31T15:42:03.410Z,130.63
2022-10-31T15:44:50.215Z,127.68
2022-10-31T15:47:41.003Z,128.57
2022-10-31T15:50:43.364Z,127.20
2022-10-31T15:53:57.471Z,127.40
2022-10-31T15:56:41.285Z,127.05
2022-10-31T15:59:35.016Z,129.73
2022-10-31T16:02:20.433Z,127.22
2022-10-31T16:05:11.016Z,126.35
2022-10-31T16:08:01.370Z,128.77
2022-10-31T16:10:50.016Z,128.05
2022-10-31T16:13:50.327Z,128.52
2022-10-31T16:16:42.025Z,130.10
2022-10-31T16:19:43.300Z,128.48
2022-10-31T16:22:37.956Z,132.02
2022-10-31T16:25:24.275Z,136.07
2022-10-31T16:28:24.552Z,132.95
2022-10-31T16:31:15.998Z,133.35
2022-10-31T16:34:26.636Z,134.65
2022-10-31T16:37:11.294Z,135.20
2022-10-31T16:40:00.109Z,133.70
2022-10-31T16:42:42.383Z,135.10
2022-10-31T16:45:33.031Z,137.35
2022-10-31T16:48:21.306Z,133.55
2022-10-31T16:51:09.978Z,135.00
2022-10-31T16:54:00.094Z,133.77
2022-10-31T16:56:50.298Z,134.70
2022-10-31T16:59:33.037Z,132.50
2022-10-31T17:02:24.604Z,135.48
2022-10-31T17:05:07.014Z,132.93
2022-10-31T17:07:50.361Z,133.90
2022-10-31T17:10:40.084Z,137.02
2022-10-31T17:13:37.376Z,136.55
2022-10-31T17:16:22.966Z,134.57
2022-10-31T17:19:05.661Z,138.80
2022-10-31T17:21:56.362Z,139.05
2022-10-31T17:24:38.225Z,138.10
2022-10-31T17:27:27.160Z,138.90
2022-10-31T17:30:11.433Z,140.60
2022-10-31T17:33:01.256Z,141.02
2022-10-31T17:35:51.609Z,142.98
2022-10-31T17:38:34.035Z,139.73
2022-10-31T17:41:23.100Z,141.63
2022-10-31T17:44:07.514Z,142.10
2022-10-31T17:46:56.004Z,142.50
2022-10-31T17:49:44.943Z,145.20
2022-10-31T17:52:34.082Z,147.57
2022-10-31T17:55:17.315Z,149.02
2022-10-31T17:58:06.075Z,153.48
2022-10-31T18:00:51.359Z,155.93
2022-10-31T18:03:41.068Z,152.73
2022-10-31T18:06:23.341Z,148.65
2022-10-31T18:09:14.904Z,152.50
2022-10-31T18:11:57.325Z,147.10
2022-10-31T18:14:48.589Z,152.05
2022-10-31T18:17:31.329Z,147.30
2022-10-31T18:20:21.065Z,144.75
2022-10-31T18:23:03.426Z,148.60
2022-10-31T18:25:52.011Z,144.18
2022-10-31T18:28:40.903Z,146.48
2022-10-31T18:31:30.365Z,149.52
2022-10-31T18:34:18.946Z,147.98
2022-10-31T18:37:01.301Z,148.55
2022-10-31T18:39:49.920Z,151.52
2022-10-31T18:42:34.830Z,151.45
2022-10-31T18:45:33.907Z,150.40
2022-10-31T18:48:26.262Z,149.75
2022-10-31T18:51:16.961Z,150.07
2022-10-31T18:54:01.381Z,154.55
2022-10-31T18:56:49.995Z,151.77
2022-10-31T18:59:32.312Z,150.82
2022-10-31T19:02:24.983Z,152.43
2022-10-31T19:05:07.650Z,156.07
2022-10-31T19:07:57.063Z,154.20
2022-10-31T19:10:42.351Z,151.50
2022-10-31T19:13:31.004Z,154.93
2022-10-31T19:16:22.348Z,154.30
2022-10-31T19:19:11.063Z,154.15
2022-10-31T19:21:53.351Z,153.82
2022-10-31T19:24:42.087Z,155.60
2022-10-31T19:27:24.438Z,156.10
2022-10-31T19:30:14.406Z,157.93
2022-10-31T19:32:57.046Z,154.27
2022-10-31T19:35:46.102Z,157.02
2022-10-31T19:38:28.308Z,157.45
2022-10-31T19:41:22.055Z,159.38
2022-10-31T19:49:46.322Z,152.60
2022-10-31T19:52:34.929Z,156.05
2022-10-31T19:55:17.305Z,159.27
2022-10-31T19:58:06.065Z,155.43
2022-10-31T20:00:48.381Z,157.45
2022-10-31T20:03:37.078Z,157.30
2022-10-31T20:06:34.327Z,157.15
2022-10-31T20:09:22.956Z,156.13
2022-10-31T20:12:05.749Z,152.85
2022-10-31T20:14:57.027Z,156.10
2022-10-31T20:17:45.910Z,153.43
2022-10-31T20:20:34.982Z,154.38
2022-10-31T20:23:17.432Z,155.40
2022-10-31T20:26:17.951Z,154.98
2022-10-31T20:29:07.026Z,153.52
2022-10-31T20:31:55.996Z,155.82
2022-10-31T20:34:44.948Z,156.60
2022-10-31T20:37:33.319Z,155.70
2022-10-31T20:40:15.994Z,160.30
2022-10-31T20:43:04.283Z,159.00
2022-10-31T20:45:47.039Z,156.57
2022-10-31T20:48:29.936Z,159.15
2022-10-31T20:51:22.026Z,160.15
2022-10-31T20:54:10.960Z,160.65
2022-10-31T20:56:59.994Z,154.45
2022-10-31T20:59:48.281Z,162.38
2022-10-31T21:02:31.009Z,157.60
2022-10-31T21:05:21.311Z,161.80
2022-10-31T21:08:03.003Z,158.88
2022-10-31T21:10:51.300Z,163.50
2022-10-31T21:13:36.464Z,158.95
2022-10-31T21:16:36.962Z,158.60
2022-10-31T21:19:20.998Z,162.23
2022-10-31T21:22:10.335Z,167.02
2022-10-31T21:24:51.893Z,162.55
2022-10-31T21:27:40.928Z,163.27
2022-10-31T21:30:23.329Z,159.13
2022-10-31T21:33:11.926Z,165.20
2022-10-31T21:36:00.316Z,158.77
2022-10-31T21:38:44.393Z,162.65
2022-10-31T21:41:33.205Z,160.35
2022-10-31T21:44:21.904Z,163.77
2022-10-31T21:47:10.295Z,162.70
2022-10-31T21:49:52.916Z,165.02
2022-10-31T21:52:41.283Z,162.80
2022-10-31T21:55:24.044Z,160.15
2022-10-31T21:58:06.205Z,162.50
2022-10-31T22:00:54.968Z,160.30
2022-10-31T22:03:48.279Z,167.13
2022-10-31T22:06:30.936Z,160.05
2022-10-31T22:09:24.312Z,162.70
2022-10-31T22:12:08.012Z,163.20
2022-10-31T22:14:56.926Z,158.63
2022-10-31T22:17:46.759Z,161.20
2022-10-31T22:20:29.179Z,154.63
2022-10-31T22:23:17.983Z,159.43
2022-10-31T22:26:15.393Z,158.18
2022-10-31T22:29:09.977Z,155.57
2022-10-31T22:31:58.555Z,157.93
2022-10-31T22:34:50.092Z,155.60
2022-10-31T22:37:38.303Z,161.73
2022-10-31T22:40:20.990Z,153.13
2022-10-31T22:43:03.403Z,162.27
2022-10-31T22:45:51.913Z,155.48
2022-10-31T22:48:46.985Z,153.77
2022-10-31T22:51:51.290Z,151.15
2022-10-31T22:54:39.912Z,151.82
2022-10-31T22:57:22.255Z,150.65
2022-10-31T23:00:12.081Z,151.60
2022-10-31T23:02:54.267Z,148.05
2022-10-31T23:05:43.017Z,151.68
2022-10-31T23:08:25.473Z,150.95
2022-10-31T23:11:27.956Z,149.05
2022-10-31T23:14:21.161Z,149.95
2022-10-31T23:17:03.234Z,145.48
2022-10-31T23:19:51.928Z,149.85
2022-10-31T23:22:34.193Z,149.63
2022-10-31T23:25:40.931Z,148.93
2022-10-31T23:28:23.229Z,150.55
2022-10-31T23:31:11.998Z,151.20
2022-10-31T23:34:06.833Z,151.38
2022-10-31T23:37:02.969Z,149.48
2022-10-31T23:39:52.276Z,153.95
2022-10-31T23:42:35.878Z,148.90
2022-10-31T23:45:25.020Z,152.00
2022-10-31T23:48:07.249Z,155.63
2022-10-31T23:50:55.993Z,150.98
2022-10-31T23:53:45.018Z,151.73
2022-10-31T23:56:34.037Z,146.93
2022-10-31T23:59:16.283Z,147.95
